sensor_id;sensor_type;location;lat;lon;timestamp;temperature;humidity
38784;DHT22;24531;45.502;12.238;2023-05-14T00:01:17;16.80;99.30
38784;DHT22;24531;45.502;12.238;2023-05-14T00:03:43;16.80;99.30
38784;DHT22;24531;45.502;12.238;2023-05-14T00:06:08;16.90;99.30
38784;DHT22;24531;45.502;12.238;2023-05-14T00:08:35;16.80;99.20
38784;DHT22;24531;45.502;12.238;2023-05-14T00:11:01;16.80;99.30
38784;DHT22;24531;45.502;12.238;2023-05-14T00:13:26;16.80;99.30
38784;DHT22;24531;45.502;12.238;2023-05-14T00:15:52;16.80;99.30
38784;DHT22;24531;45.502;12.238;2023-05-14T00:18:17;16.80;99.20
38784;DHT22;24531;45.502;12.238;2023-05-14T00:20:43;16.90;99.20
38784;DHT22;24531;45.502;12.238;2023-05-14T00:23:08;16.90;99.10
38784;DHT22;24531;45.502;12.238;2023-05-14T00:25:35;16.90;99.10
38784;DHT22;24531;45.502;12.238;2023-05-14T00:28:00;16.90;99.10
38784;DHT22;24531;45.502;12.238;2023-05-14T00:30:26;16.90;99.00
38784;DHT22;24531;45.502;12.238;2023-05-14T00:32:51;16.90;99.00
38784;DHT22;24531;45.502;12.238;2023-05-14T00:35:17;16.80;99.00
38784;DHT22;24531;45.502;12.238;2023-05-14T00:37:44;16.80;98.90
38784;DHT22;24531;45.502;12.238;2023-05-14T00:40:10;16.80;98.90
38784;DHT22;24531;45.502;12.238;2023-05-14T00:42:38;16.80;98.90
38784;DHT22;24531;45.502;12.238;2023-05-14T00:45:04;16.80;98.90
38784;DHT22;24531;45.502;12.238;2023-05-14T00:47:30;16.80;98.80
38784;DHT22;24531;45.502;12.238;2023-05-14T00:49:56;16.80;98.80
38784;DHT22;24531;45.502;12.238;2023-05-14T00:52:22;16.80;98.80
38784;DHT22;24531;45.502;12.238;2023-05-14T00:54:48;16.80;98.70
38784;DHT22;24531;45.502;12.238;2023-05-14T00:57:13;16.80;98.70
38784;DHT22;24531;45.502;12.238;2023-05-14T00:59:39;16.80;98.60
38784;DHT22;24531;45.502;12.238;2023-05-14T01:02:06;16.90;98.70
38784;DHT22;24531;45.502;12.238;2023-05-14T01:04:32;16.90;98.70
38784;DHT22;24531;45.502;12.238;2023-05-14T01:07:19;16.90;98.70
38784;DHT22;24531;45.502;12.238;2023-05-14T01:10:01;16.90;98.60
38784;DHT22;24531;45.502;12.238;2023-05-14T01:12:38;16.90;98.60
38784;DHT22;24531;45.502;12.238;2023-05-14T01:15:10;16.90;98.50
38784;DHT22;24531;45.502;12.238;2023-05-14T01:17:50;16.80;98.40
38784;DHT22;24531;45.502;12.238;2023-05-14T01:20:16;16.80;98.50
38784;DHT22;24531;45.502;12.238;2023-05-14T01:22:42;16.80;98.50
38784;DHT22;24531;45.502;12.238;2023-05-14T01:25:08;16.80;98.50
38784;DHT22;24531;45.502;12.238;2023-05-14T01:27:54;16.80;98.50
38784;DHT22;24531;45.502;12.238;2023-05-14T01:30:30;16.80;98.50
38784;DHT22;24531;45.502;12.238;2023-05-14T01:32:58;16.90;98.40
38784;DHT22;24531;45.502;12.238;2023-05-14T01:35:29;16.80;98.40
38784;DHT22;24531;45.502;12.238;2023-05-14T01:37:57;16.80;98.40
38784;DHT22;24531;45.502;12.238;2023-05-14T01:40:24;16.80;98.40
38784;DHT22;24531;45.502;12.238;2023-05-14T01:42:50;16.90;98.40
38784;DHT22;24531;45.502;12.238;2023-05-14T01:45:22;16.80;98.70
38784;DHT22;24531;45.502;12.238;2023-05-14T01:47:48;16.80;98.40
38784;DHT22;24531;45.502;12.238;2023-05-14T01:50:14;16.80;98.50
38784;DHT22;24531;45.502;12.238;2023-05-14T01:52:40;16.80;99.00
38784;DHT22;24531;45.502;12.238;2023-05-14T01:55:06;16.80;98.80
38784;DHT22;24531;45.502;12.238;2023-05-14T01:57:31;16.80;98.90
38784;DHT22;24531;45.502;12.238;2023-05-14T01:59:57;16.80;99.10
38784;DHT22;24531;45.502;12.238;2023-05-14T02:02:23;16.80;99.10
38784;DHT22;24531;45.502;12.238;2023-05-14T02:04:49;16.80;99.20
38784;DHT22;24531;45.502;12.238;2023-05-14T02:07:14;16.80;99.30
38784;DHT22;24531;45.502;12.238;2023-05-14T02:09:40;16.80;99.30
38784;DHT22;24531;45.502;12.238;2023-05-14T02:12:07;16.80;99.40
38784;DHT22;24531;45.502;12.238;2023-05-14T02:14:32;16.80;99.40
38784;DHT22;24531;45.502;12.238;2023-05-14T02:16:58;16.80;99.40
38784;DHT22;24531;45.502;12.238;2023-05-14T02:19:24;16.70;99.40
38784;DHT22;24531;45.502;12.238;2023-05-14T02:21:50;16.80;99.50
38784;DHT22;24531;45.502;12.238;2023-05-14T02:24:15;16.80;99.50
38784;DHT22;24531;45.502;12.238;2023-05-14T02:26:41;16.80;99.60
38784;DHT22;24531;45.502;12.238;2023-05-14T02:29:07;16.80;99.60
38784;DHT22;24531;45.502;12.238;2023-05-14T02:31:33;16.80;99.60
38784;DHT22;24531;45.502;12.238;2023-05-14T02:34:00;16.90;99.60
38784;DHT22;24531;45.502;12.238;2023-05-14T02:36:26;16.90;99.90
38784;DHT22;24531;45.502;12.238;2023-05-14T02:38:51;16.90;99.60
38784;DHT22;24531;45.502;12.238;2023-05-14T02:41:17;16.90;99.60
38784;DHT22;24531;45.502;12.238;2023-05-14T02:43:42;16.80;99.60
38784;DHT22;24531;45.502;12.238;2023-05-14T02:46:08;16.80;99.60
38784;DHT22;24531;45.502;12.238;2023-05-14T02:48:34;16.80;99.70
38784;DHT22;24531;45.502;12.238;2023-05-14T02:50:59;16.80;99.70
38784;DHT22;24531;45.502;12.238;2023-05-14T02:53:25;16.80;99.70
38784;DHT22;24531;45.502;12.238;2023-05-14T02:55:51;16.80;99.60
38784;DHT22;24531;45.502;12.238;2023-05-14T02:58:16;16.70;99.60
38784;DHT22;24531;45.502;12.238;2023-05-14T03:00:42;16.70;99.50
38784;DHT22;24531;45.502;12.238;2023-05-14T03:03:07;16.60;99.50
38784;DHT22;24531;45.502;12.238;2023-05-14T03:05:33;16.60;99.60
38784;DHT22;24531;45.502;12.238;2023-05-14T03:07:59;16.50;99.50
38784;DHT22;24531;45.502;12.238;2023-05-14T03:10:25;16.50;99.60
38784;DHT22;24531;45.502;12.238;2023-05-14T03:12:51;16.40;99.50
38784;DHT22;24531;45.502;12.238;2023-05-14T03:15:16;16.40;99.50
38784;DHT22;24531;45.502;12.238;2023-05-14T03:17:42;16.30;99.60
38784;DHT22;24531;45.502;12.238;2023-05-14T03:20:08;16.40;99.60
38784;DHT22;24531;45.502;12.238;2023-05-14T03:22:34;16.30;99.60
38784;DHT22;24531;45.502;12.238;2023-05-14T03:24:59;16.30;99.70
38784;DHT22;24531;45.502;12.238;2023-05-14T03:27:25;16.20;99.70
38784;DHT22;24531;45.502;12.238;2023-05-14T03:29:51;16.30;99.80
38784;DHT22;24531;45.502;12.238;2023-05-14T03:32:16;16.30;99.80
38784;DHT22;24531;45.502;12.238;2023-05-14T03:34:43;16.30;99.80
38784;DHT22;24531;45.502;12.238;2023-05-14T03:37:09;16.30;99.80
38784;DHT22;24531;45.502;12.238;2023-05-14T03:39:35;16.30;99.80
38784;DHT22;24531;45.502;12.238;2023-05-14T03:42:00;16.30;99.80
38784;DHT22;24531;45.502;12.238;2023-05-14T03:44:26;16.30;99.80
38784;DHT22;24531;45.502;12.238;2023-05-14T03:46:52;16.30;99.80
38784;DHT22;24531;45.502;12.238;2023-05-14T03:49:18;16.20;99.80
38784;DHT22;24531;45.502;12.238;2023-05-14T03:51:43;16.20;99.80
38784;DHT22;24531;45.502;12.238;2023-05-14T03:54:09;16.20;99.90
38784;DHT22;24531;45.502;12.238;2023-05-14T03:56:35;16.20;99.90
38784;DHT22;24531;45.502;12.238;2023-05-14T03:59:01;16.20;99.90
38784;DHT22;24531;45.502;12.238;2023-05-14T04:01:26;16.10;99.90
38784;DHT22;24531;45.502;12.238;2023-05-14T04:03:52;16.20;99.90
38784;DHT22;24531;45.502;12.238;2023-05-14T04:06:18;16.20;99.90
38784;DHT22;24531;45.502;12.238;2023-05-14T04:08:43;16.20;99.90
38784;DHT22;24531;45.502;12.238;2023-05-14T04:11:09;16.20;99.90
38784;DHT22;24531;45.502;12.238;2023-05-14T04:13:34;16.20;99.90
38784;DHT22;24531;45.502;12.238;2023-05-14T04:16:00;16.20;99.90
38784;DHT22;24531;45.502;12.238;2023-05-14T04:18:26;16.20;99.90
38784;DHT22;24531;45.502;12.238;2023-05-14T04:20:51;16.20;99.90
38784;DHT22;24531;45.502;12.238;2023-05-14T04:23:17;16.20;99.90
38784;DHT22;24531;45.502;12.238;2023-05-14T04:25:42;16.20;99.90
38784;DHT22;24531;45.502;12.238;2023-05-14T04:28:08;16.20;99.90
38784;DHT22;24531;45.502;12.238;2023-05-14T04:30:34;16.20;99.90
38784;DHT22;24531;45.502;12.238;2023-05-14T04:32:59;16.20;99.90
38784;DHT22;24531;45.502;12.238;2023-05-14T04:35:25;16.10;99.90
38784;DHT22;24531;45.502;12.238;2023-05-14T04:37:51;16.10;99.90
38784;DHT22;24531;45.502;12.238;2023-05-14T04:40:16;16.10;99.90
38784;DHT22;24531;45.502;12.238;2023-05-14T04:42:42;16.10;99.90
38784;DHT22;24531;45.502;12.238;2023-05-14T04:45:08;16.10;99.90
38784;DHT22;24531;45.502;12.238;2023-05-14T04:47:34;16.10;99.90
38784;DHT22;24531;45.502;12.238;2023-05-14T04:50:00;16.10;99.90
38784;DHT22;24531;45.502;12.238;2023-05-14T04:52:26;16.10;99.90
38784;DHT22;24531;45.502;12.238;2023-05-14T04:54:51;16.10;99.90
38784;DHT22;24531;45.502;12.238;2023-05-14T04:57:17;16.10;99.90
38784;DHT22;24531;45.502;12.238;2023-05-14T04:59:43;16.10;99.90
38784;DHT22;24531;45.502;12.238;2023-05-14T05:02:09;16.10;99.90
38784;DHT22;24531;45.502;12.238;2023-05-14T05:04:34;16.20;99.90
38784;DHT22;24531;45.502;12.238;2023-05-14T05:07:00;16.20;99.90
38784;DHT22;24531;45.502;12.238;2023-05-14T05:09:25;16.20;99.90
38784;DHT22;24531;45.502;12.238;2023-05-14T05:11:51;16.20;99.90
38784;DHT22;24531;45.502;12.238;2023-05-14T05:14:17;16.20;99.90
38784;DHT22;24531;45.502;12.238;2023-05-14T05:16:42;16.20;99.90
38784;DHT22;24531;45.502;12.238;2023-05-14T05:19:08;16.30;99.90
38784;DHT22;24531;45.502;12.238;2023-05-14T05:21:34;16.30;99.90
38784;DHT22;24531;45.502;12.238;2023-05-14T05:24:00;16.30;99.90
38784;DHT22;24531;45.502;12.238;2023-05-14T05:26:26;16.40;99.90
38784;DHT22;24531;45.502;12.238;2023-05-14T05:28:52;16.50;99.90
38784;DHT22;24531;45.502;12.238;2023-05-14T05:31:18;16.60;99.90
38784;DHT22;24531;45.502;12.238;2023-05-14T05:33:44;16.60;99.90
38784;DHT22;24531;45.502;12.238;2023-05-14T05:36:10;16.60;99.90
38784;DHT22;24531;45.502;12.238;2023-05-14T05:38:36;16.70;99.90
38784;DHT22;24531;45.502;12.238;2023-05-14T05:41:02;16.80;99.90
38784;DHT22;24531;45.502;12.238;2023-05-14T05:43:27;16.80;99.90
38784;DHT22;24531;45.502;12.238;2023-05-14T05:45:53;16.80;99.90
38784;DHT22;24531;45.502;12.238;2023-05-14T05:48:19;16.80;99.90
38784;DHT22;24531;45.502;12.238;2023-05-14T05:50:48;16.80;99.90
38784;DHT22;24531;45.502;12.238;2023-05-14T05:53:14;16.90;99.90
38784;DHT22;24531;45.502;12.238;2023-05-14T05:55:41;16.80;99.90
38784;DHT22;24531;45.502;12.238;2023-05-14T05:58:07;16.90;99.90
38784;DHT22;24531;45.502;12.238;2023-05-14T06:00:35;16.90;99.90
38784;DHT22;24531;45.502;12.238;2023-05-14T06:03:01;17.00;99.90
38784;DHT22;24531;45.502;12.238;2023-05-14T06:05:27;17.00;99.90
38784;DHT22;24531;45.502;12.238;2023-05-14T06:07:52;17.00;99.90
38784;DHT22;24531;45.502;12.238;2023-05-14T06:10:18;17.00;99.90
38784;DHT22;24531;45.502;12.238;2023-05-14T06:12:44;17.00;99.90
38784;DHT22;24531;45.502;12.238;2023-05-14T06:15:10;17.00;99.90
38784;DHT22;24531;45.502;12.238;2023-05-14T06:17:36;17.10;99.90
38784;DHT22;24531;45.502;12.238;2023-05-14T06:20:02;17.20;99.90
38784;DHT22;24531;45.502;12.238;2023-05-14T06:22:30;17.20;99.90
38784;DHT22;24531;45.502;12.238;2023-05-14T06:24:55;17.30;99.90
38784;DHT22;24531;45.502;12.238;2023-05-14T06:27:21;17.30;99.90
38784;DHT22;24531;45.502;12.238;2023-05-14T06:29:47;17.30;99.90
38784;DHT22;24531;45.502;12.238;2023-05-14T06:32:13;17.30;99.90
38784;DHT22;24531;45.502;12.238;2023-05-14T06:34:40;17.30;99.90
38784;DHT22;24531;45.502;12.238;2023-05-14T06:37:07;17.30;99.90
38784;DHT22;24531;45.502;12.238;2023-05-14T06:39:34;17.30;99.90
38784;DHT22;24531;45.502;12.238;2023-05-14T06:42:00;17.30;99.90
38784;DHT22;24531;45.502;12.238;2023-05-14T06:44:26;17.30;99.90
38784;DHT22;24531;45.502;12.238;2023-05-14T06:46:52;17.30;99.90
38784;DHT22;24531;45.502;12.238;2023-05-14T06:49:17;17.30;99.90
38784;DHT22;24531;45.502;12.238;2023-05-14T06:51:43;17.30;99.90
38784;DHT22;24531;45.502;12.238;2023-05-14T06:54:10;17.30;99.90
38784;DHT22;24531;45.502;12.238;2023-05-14T06:56:36;17.30;99.90
38784;DHT22;24531;45.502;12.238;2023-05-14T06:59:01;17.30;99.90
38784;DHT22;24531;45.502;12.238;2023-05-14T07:01:27;17.30;99.90
38784;DHT22;24531;45.502;12.238;2023-05-14T07:03:53;17.30;99.90
38784;DHT22;24531;45.502;12.238;2023-05-14T07:06:21;17.40;99.90
38784;DHT22;24531;45.502;12.238;2023-05-14T07:08:47;17.40;99.90
38784;DHT22;24531;45.502;12.238;2023-05-14T07:11:13;17.40;99.90
38784;DHT22;24531;45.502;12.238;2023-05-14T07:13:39;17.30;99.90
38784;DHT22;24531;45.502;12.238;2023-05-14T07:16:06;17.30;99.90
38784;DHT22;24531;45.502;12.238;2023-05-14T07:18:34;17.30;99.90
38784;DHT22;24531;45.502;12.238;2023-05-14T07:21:00;17.30;99.90
38784;DHT22;24531;45.502;12.238;2023-05-14T07:23:25;17.40;99.90
38784;DHT22;24531;45.502;12.238;2023-05-14T07:25:51;17.30;99.90
38784;DHT22;24531;45.502;12.238;2023-05-14T07:28:17;17.30;99.90
38784;DHT22;24531;45.502;12.238;2023-05-14T07:30:42;17.30;99.90
38784;DHT22;24531;45.502;12.238;2023-05-14T07:33:08;17.20;99.90
38784;DHT22;24531;45.502;12.238;2023-05-14T07:35:34;17.20;99.90
38784;DHT22;24531;45.502;12.238;2023-05-14T07:37:59;17.30;99.90
38784;DHT22;24531;45.502;12.238;2023-05-14T07:40:25;17.30;99.90
38784;DHT22;24531;45.502;12.238;2023-05-14T07:42:51;17.20;99.90
38784;DHT22;24531;45.502;12.238;2023-05-14T07:45:16;17.20;99.90
38784;DHT22;24531;45.502;12.238;2023-05-14T07:47:42;17.20;99.90
38784;DHT22;24531;45.502;12.238;2023-05-14T07:50:08;17.20;99.90
38784;DHT22;24531;45.502;12.238;2023-05-14T07:52:34;17.20;99.90
38784;DHT22;24531;45.502;12.238;2023-05-14T07:55:01;17.20;99.90
38784;DHT22;24531;45.502;12.238;2023-05-14T07:57:27;17.20;99.90
38784;DHT22;24531;45.502;12.238;2023-05-14T07:59:53;17.30;99.90
38784;DHT22;24531;45.502;12.238;2023-05-14T08:02:18;17.30;99.90
38784;DHT22;24531;45.502;12.238;2023-05-14T08:04:44;17.30;99.90
38784;DHT22;24531;45.502;12.238;2023-05-14T08:07:10;17.30;99.90
38784;DHT22;24531;45.502;12.238;2023-05-14T08:09:36;17.30;99.90
38784;DHT22;24531;45.502;12.238;2023-05-14T08:12:02;17.40;99.90
38784;DHT22;24531;45.502;12.238;2023-05-14T08:14:27;17.40;99.90
38784;DHT22;24531;45.502;12.238;2023-05-14T08:16:53;17.40;99.90
38784;DHT22;24531;45.502;12.238;2023-05-14T08:19:19;17.30;99.90
38784;DHT22;24531;45.502;12.238;2023-05-14T08:21:45;17.30;99.90
38784;DHT22;24531;45.502;12.238;2023-05-14T08:24:10;17.30;99.90
38784;DHT22;24531;45.502;12.238;2023-05-14T08:26:36;17.30;99.90
38784;DHT22;24531;45.502;12.238;2023-05-14T08:29:03;17.30;99.90
38784;DHT22;24531;45.502;12.238;2023-05-14T08:31:29;17.20;99.90
38784;DHT22;24531;45.502;12.238;2023-05-14T08:33:54;17.20;99.90
38784;DHT22;24531;45.502;12.238;2023-05-14T08:36:20;17.10;99.90
38784;DHT22;24531;45.502;12.238;2023-05-14T08:38:49;17.10;99.90
38784;DHT22;24531;45.502;12.238;2023-05-14T08:41:15;17.20;99.90
38784;DHT22;24531;45.502;12.238;2023-05-14T08:43:56;17.20;99.90
38784;DHT22;24531;45.502;12.238;2023-05-14T08:46:23;17.10;99.90
38784;DHT22;24531;45.502;12.238;2023-05-14T08:49:01;17.10;99.90
38784;DHT22;24531;45.502;12.238;2023-05-14T08:51:29;17.10;99.90
38784;DHT22;24531;45.502;12.238;2023-05-14T08:53:58;17.20;99.90
38784;DHT22;24531;45.502;12.238;2023-05-14T08:56:26;17.20;99.90
38784;DHT22;24531;45.502;12.238;2023-05-14T08:58:52;17.30;99.90
38784;DHT22;24531;45.502;12.238;2023-05-14T09:01:18;17.30;99.90
38784;DHT22;24531;45.502;12.238;2023-05-14T09:03:44;17.30;99.90
38784;DHT22;24531;45.502;12.238;2023-05-14T09:06:12;17.30;99.90
38784;DHT22;24531;45.502;12.238;2023-05-14T09:08:38;17.30;99.90
38784;DHT22;24531;45.502;12.238;2023-05-14T09:11:04;17.30;99.90
38784;DHT22;24531;45.502;12.238;2023-05-14T09:13:29;17.30;99.90
38784;DHT22;24531;45.502;12.238;2023-05-14T09:15:55;17.40;99.90
38784;DHT22;24531;45.502;12.238;2023-05-14T09:18:21;17.40;99.90
38784;DHT22;24531;45.502;12.238;2023-05-14T09:20:47;17.40;99.90
38784;DHT22;24531;45.502;12.238;2023-05-14T09:23:13;17.40;99.90
38784;DHT22;24531;45.502;12.238;2023-05-14T09:25:39;17.40;99.90
38784;DHT22;24531;45.502;12.238;2023-05-14T09:28:07;17.40;99.90
38784;DHT22;24531;45.502;12.238;2023-05-14T09:30:33;17.30;99.90
38784;DHT22;24531;45.502;12.238;2023-05-14T09:33:01;17.30;99.90
38784;DHT22;24531;45.502;12.238;2023-05-14T09:35:28;17.30;99.90
38784;DHT22;24531;45.502;12.238;2023-05-14T09:37:54;17.30;99.90
38784;DHT22;24531;45.502;12.238;2023-05-14T09:40:21;17.30;99.90
38784;DHT22;24531;45.502;12.238;2023-05-14T09:42:47;17.40;99.90
38784;DHT22;24531;45.502;12.238;2023-05-14T09:45:14;17.30;99.90
38784;DHT22;24531;45.502;12.238;2023-05-14T09:47:39;17.30;99.90
38784;DHT22;24531;45.502;12.238;2023-05-14T09:50:06;17.40;99.90
38784;DHT22;24531;45.502;12.238;2023-05-14T09:52:32;17.50;99.90
38784;DHT22;24531;45.502;12.238;2023-05-14T09:54:58;17.70;99.90
38784;DHT22;24531;45.502;12.238;2023-05-14T09:57:24;17.80;99.90
38784;DHT22;24531;45.502;12.238;2023-05-14T09:59:51;18.00;99.90
38784;DHT22;24531;45.502;12.238;2023-05-14T10:02:34;18.10;99.90
38784;DHT22;24531;45.502;12.238;2023-05-14T10:05:03;18.30;99.90
38784;DHT22;24531;45.502;12.238;2023-05-14T10:07:45;18.60;99.90
38784;DHT22;24531;45.502;12.238;2023-05-14T10:10:15;18.90;99.90
38784;DHT22;24531;45.502;12.238;2023-05-14T10:12:48;19.10;99.90
38784;DHT22;24531;45.502;12.238;2023-05-14T10:15:19;19.20;99.90
38784;DHT22;24531;45.502;12.238;2023-05-14T10:17:48;19.40;99.90
38784;DHT22;24531;45.502;12.238;2023-05-14T10:20:17;19.70;99.90
38784;DHT22;24531;45.502;12.238;2023-05-14T10:22:43;20.00;99.90
38784;DHT22;24531;45.502;12.238;2023-05-14T10:25:09;20.20;99.90
38784;DHT22;24531;45.502;12.238;2023-05-14T10:27:35;20.20;99.90
38784;DHT22;24531;45.502;12.238;2023-05-14T10:30:05;20.30;99.90
38784;DHT22;24531;45.502;12.238;2023-05-14T10:32:34;20.30;99.90
38784;DHT22;24531;45.502;12.238;2023-05-14T10:35:17;20.50;99.90
38784;DHT22;24531;45.502;12.238;2023-05-14T10:37:45;20.60;99.90
38784;DHT22;24531;45.502;12.238;2023-05-14T10:40:12;20.70;99.90
38784;DHT22;24531;45.502;12.238;2023-05-14T10:42:38;20.90;99.90
38784;DHT22;24531;45.502;12.238;2023-05-14T10:45:06;20.90;99.90
38784;DHT22;24531;45.502;12.238;2023-05-14T10:47:34;21.00;99.90
38784;DHT22;24531;45.502;12.238;2023-05-14T10:50:05;21.10;99.90
38784;DHT22;24531;45.502;12.238;2023-05-14T10:52:31;21.10;99.90
38784;DHT22;24531;45.502;12.238;2023-05-14T10:55:00;20.80;99.90
38784;DHT22;24531;45.502;12.238;2023-05-14T10:57:27;20.60;99.90
38784;DHT22;24531;45.502;12.238;2023-05-14T10:59:58;20.50;99.90
38784;DHT22;24531;45.502;12.238;2023-05-14T11:02:32;20.30;99.90
38784;DHT22;24531;45.502;12.238;2023-05-14T11:05:14;20.20;99.90
38784;DHT22;24531;45.502;12.238;2023-05-14T11:07:45;20.10;99.90
38784;DHT22;24531;45.502;12.238;2023-05-14T11:10:19;20.00;99.90
38784;DHT22;24531;45.502;12.238;2023-05-14T11:12:47;20.00;99.90
38784;DHT22;24531;45.502;12.238;2023-05-14T11:15:19;19.90;99.90
38784;DHT22;24531;45.502;12.238;2023-05-14T11:17:45;20.00;99.90
38784;DHT22;24531;45.502;12.238;2023-05-14T11:20:12;20.10;99.90
38784;DHT22;24531;45.502;12.238;2023-05-14T11:22:39;20.10;99.90
38784;DHT22;24531;45.502;12.238;2023-05-14T11:25:07;20.10;99.90
38784;DHT22;24531;45.502;12.238;2023-05-14T11:27:34;20.00;99.90
38784;DHT22;24531;45.502;12.238;2023-05-14T11:30:00;20.00;99.90
38784;DHT22;24531;45.502;12.238;2023-05-14T11:32:32;20.00;99.90
38784;DHT22;24531;45.502;12.238;2023-05-14T11:34:59;20.00;99.80
38784;DHT22;24531;45.502;12.238;2023-05-14T11:37:24;19.90;99.60
38784;DHT22;24531;45.502;12.238;2023-05-14T11:39:54;19.80;99.60
38784;DHT22;24531;45.502;12.238;2023-05-14T11:42:20;19.60;99.60
38784;DHT22;24531;45.502;12.238;2023-05-14T11:44:48;19.50;99.50
38784;DHT22;24531;45.502;12.238;2023-05-14T11:47:15;19.30;99.60
38784;DHT22;24531;45.502;12.238;2023-05-14T11:49:41;19.30;99.60
38784;DHT22;24531;45.502;12.238;2023-05-14T11:52:08;19.30;99.70
38784;DHT22;24531;45.502;12.238;2023-05-14T11:54:36;19.30;99.80
38784;DHT22;24531;45.502;12.238;2023-05-14T11:57:09;19.30;99.80
38784;DHT22;24531;45.502;12.238;2023-05-14T11:59:36;19.30;99.80
38784;DHT22;24531;45.502;12.238;2023-05-14T12:02:03;19.40;99.70
38784;DHT22;24531;45.502;12.238;2023-05-14T12:04:31;19.40;99.70
38784;DHT22;24531;45.502;12.238;2023-05-14T12:06:58;19.50;99.60
38784;DHT22;24531;45.502;12.238;2023-05-14T12:09:25;19.60;99.60
38784;DHT22;24531;45.502;12.238;2023-05-14T12:11:51;19.70;99.70
38784;DHT22;24531;45.502;12.238;2023-05-14T12:14:19;19.70;99.70
38784;DHT22;24531;45.502;12.238;2023-05-14T12:16:46;19.70;99.30
38784;DHT22;24531;45.502;12.238;2023-05-14T12:19:17;19.80;99.40
38784;DHT22;24531;45.502;12.238;2023-05-14T12:21:43;20.00;99.30
38784;DHT22;24531;45.502;12.238;2023-05-14T12:24:19;20.00;99.30
38784;DHT22;24531;45.502;12.238;2023-05-14T12:26:49;20.10;99.20
38784;DHT22;24531;45.502;12.238;2023-05-14T12:29:16;20.00;99.00
38784;DHT22;24531;45.502;12.238;2023-05-14T12:31:46;20.00;99.00
38784;DHT22;24531;45.502;12.238;2023-05-14T12:34:12;20.00;99.30
38784;DHT22;24531;45.502;12.238;2023-05-14T12:36:38;20.20;99.30
38784;DHT22;24531;45.502;12.238;2023-05-14T12:39:04;20.40;99.20
38784;DHT22;24531;45.502;12.238;2023-05-14T12:41:30;20.40;98.90
38784;DHT22;24531;45.502;12.238;2023-05-14T12:43:56;20.50;98.90
38784;DHT22;24531;45.502;12.238;2023-05-14T12:46:22;20.50;98.50
38784;DHT22;24531;45.502;12.238;2023-05-14T12:48:48;20.60;98.50
38784;DHT22;24531;45.502;12.238;2023-05-14T12:51:14;20.40;98.20
38784;DHT22;24531;45.502;12.238;2023-05-14T12:53:39;20.40;98.30
38784;DHT22;24531;45.502;12.238;2023-05-14T12:56:06;20.40;98.60
38784;DHT22;24531;45.502;12.238;2023-05-14T12:58:32;20.30;98.20
38784;DHT22;24531;45.502;12.238;2023-05-14T13:00:57;20.30;98.20
38784;DHT22;24531;45.502;12.238;2023-05-14T13:03:23;20.20;98.20
38784;DHT22;24531;45.502;12.238;2023-05-14T13:05:51;20.20;98.10
38784;DHT22;24531;45.502;12.238;2023-05-14T13:08:17;20.10;98.00
38784;DHT22;24531;45.502;12.238;2023-05-14T13:10:43;19.90;97.80
38784;DHT22;24531;45.502;12.238;2023-05-14T13:13:10;19.90;97.90
38784;DHT22;24531;45.502;12.238;2023-05-14T13:15:36;19.80;97.90
38784;DHT22;24531;45.502;12.238;2023-05-14T13:18:02;19.80;98.00
38784;DHT22;24531;45.502;12.238;2023-05-14T13:20:28;19.80;97.90
38784;DHT22;24531;45.502;12.238;2023-05-14T13:22:55;19.80;97.90
38784;DHT22;24531;45.502;12.238;2023-05-14T13:25:21;19.80;97.80
38784;DHT22;24531;45.502;12.238;2023-05-14T13:27:47;19.80;97.70
38784;DHT22;24531;45.502;12.238;2023-05-14T13:30:16;19.80;97.80
38784;DHT22;24531;45.502;12.238;2023-05-14T13:32:42;19.90;97.80
38784;DHT22;24531;45.502;12.238;2023-05-14T13:35:08;19.90;97.70
38784;DHT22;24531;45.502;12.238;2023-05-14T13:37:34;20.00;97.70
38784;DHT22;24531;45.502;12.238;2023-05-14T13:39:59;20.00;97.60
38784;DHT22;24531;45.502;12.238;2023-05-14T13:42:25;19.90;97.60
38784;DHT22;24531;45.502;12.238;2023-05-14T13:44:51;19.90;97.60
38784;DHT22;24531;45.502;12.238;2023-05-14T13:47:17;19.90;97.50
38784;DHT22;24531;45.502;12.238;2023-05-14T13:49:42;19.80;97.60
38784;DHT22;24531;45.502;12.238;2023-05-14T13:52:08;19.70;97.60
38784;DHT22;24531;45.502;12.238;2023-05-14T13:54:33;19.70;97.60
38784;DHT22;24531;45.502;12.238;2023-05-14T13:56:59;19.60;97.50
38784;DHT22;24531;45.502;12.238;2023-05-14T13:59:25;19.50;97.60
38784;DHT22;24531;45.502;12.238;2023-05-14T14:01:50;19.50;97.70
38784;DHT22;24531;45.502;12.238;2023-05-14T14:04:16;19.50;97.70
38784;DHT22;24531;45.502;12.238;2023-05-14T14:06:42;19.50;97.50
38784;DHT22;24531;45.502;12.238;2023-05-14T14:09:08;19.40;97.60
38784;DHT22;24531;45.502;12.238;2023-05-14T14:11:34;19.40;97.60
38784;DHT22;24531;45.502;12.238;2023-05-14T14:14:02;19.40;97.70
38784;DHT22;24531;45.502;12.238;2023-05-14T14:16:28;19.40;97.80
38784;DHT22;24531;45.502;12.238;2023-05-14T14:18:53;19.50;98.10
38784;DHT22;24531;45.502;12.238;2023-05-14T14:21:19;19.40;97.70
38784;DHT22;24531;45.502;12.238;2023-05-14T14:23:45;19.50;97.80
38784;DHT22;24531;45.502;12.238;2023-05-14T14:26:11;19.60;97.90
38784;DHT22;24531;45.502;12.238;2023-05-14T14:28:36;19.60;98.00
38784;DHT22;24531;45.502;12.238;2023-05-14T14:31:02;19.70;98.00
38784;DHT22;24531;45.502;12.238;2023-05-14T14:33:28;19.60;97.80
38784;DHT22;24531;45.502;12.238;2023-05-14T14:35:53;19.40;97.70
38784;DHT22;24531;45.502;12.238;2023-05-14T14:38:19;19.30;97.90
38784;DHT22;24531;45.502;12.238;2023-05-14T14:40:44;19.30;98.00
38784;DHT22;24531;45.502;12.238;2023-05-14T14:43:13;19.30;98.00
38784;DHT22;24531;45.502;12.238;2023-05-14T14:45:41;19.20;98.00
38784;DHT22;24531;45.502;12.238;2023-05-14T14:48:28;19.10;98.00
38784;DHT22;24531;45.502;12.238;2023-05-14T14:51:12;19.10;98.10
38784;DHT22;24531;45.502;12.238;2023-05-14T14:53:38;19.00;98.10
38784;DHT22;24531;45.502;12.238;2023-05-14T14:56:05;19.00;98.10
38784;DHT22;24531;45.502;12.238;2023-05-14T14:58:30;19.00;98.10
38784;DHT22;24531;45.502;12.238;2023-05-14T15:00:56;19.00;98.20
38784;DHT22;24531;45.502;12.238;2023-05-14T15:03:23;19.00;98.30
38784;DHT22;24531;45.502;12.238;2023-05-14T15:05:49;19.10;98.20
38784;DHT22;24531;45.502;12.238;2023-05-14T15:08:16;19.10;98.20
38784;DHT22;24531;45.502;12.238;2023-05-14T15:10:41;19.20;98.20
38784;DHT22;24531;45.502;12.238;2023-05-14T15:13:08;19.20;98.10